Time;durP1;ratioP1;P1;durP2;ratioP2;P2;SDS_P1;SDS_P2;PMS_P1;PMS_P2;Temp;Humidity;BMP_temperature;BMP_pressure;BME280_temperature;BME280_humidity;BME280_pressure;Samples;Min_cycle;Max_cycle;Signal;HPM_P1;HPM_P2
2022/01/20 00:01:12;;;;;;;12.05;8.98;;;;;;;3.05;83.47;100867.06;5024928;28;20378;-22
2022/01/20 00:03:31;;;;;;;10.88;7.72;;;;;;;3.06;84.08;100902.72;5028103;28;20037;-22
2022/01/20 00:09:17;;;;;;;8.48;6.70;;;;;;;3.05;84.37;100883.63;5001640;28;20069;-22
2022/01/20 00:28:13;;;;;;;6.38;3.50;;;;;;;3.02;83.93;100862.69;5024454;28;20557;-22
2022/01/20 00:30:55;;;;;;;4.55;2.90;;;;;;;3.02;83.75;100867.00;5027298;28;20023;-22
2022/01/20 00:33:34;;;;;;;5.05;2.83;;;;;;;3.01;84.09;100866.13;5026098;28;20034;-22
2022/01/20 00:38:37;;;;;;;4.78;2.95;;;;;;;3.00;83.64;100874.78;5023452;28;20187;-22
2022/01/20 00:41:03;;;;;;;9.98;3.10;;;;;;;2.97;83.58;100884.25;5021960;28;20028;-22
2022/01/20 00:43:29;;;;;;;8.23;3.65;;;;;;;2.97;83.29;100881.66;5024419;28;20017;-22
2022/01/20 00:45:55;;;;;;;11.88;4.07;;;;;;;2.94;83.32;100880.72;5026578;28;20040;-22
2022/01/20 00:48:22;;;;;;;15.32;3.80;;;;;;;2.97;83.16;100876.44;5026955;28;20038;-22
2022/01/20 00:50:48;;;;;;;16.65;4.18;;;;;;;2.96;82.74;100878.16;5022622;28;20036;-22
2022/01/20 00:53:14;;;;;;;21.30;5.43;;;;;;;2.97;82.64;100884.25;5022822;28;20025;-22
2022/01/20 00:55:40;;;;;;;14.23;3.72;;;;;;;2.96;82.72;100888.56;5024561;28;20080;-22
2022/01/20 00:58:07;;;;;;;13.77;4.78;;;;;;;2.96;82.40;100878.16;5021685;28;20454;-22
2022/01/20 01:00:33;;;;;;;10.38;3.03;;;;;;;2.97;82.41;100897.28;5024775;28;20029;-22
2022/01/20 01:02:59;;;;;;;15.98;3.47;;;;;;;2.94;82.18;100878.09;5026984;28;20026;-22
2022/01/20 01:05:27;;;;;;;14.05;3.70;;;;;;;2.97;81.64;100879.94;5026935;28;20067;-22
2022/01/20 01:07:55;;;;;;;15.25;3.72;;;;;;;2.94;81.41;100883.31;5024944;28;20100;-22
2022/01/20 01:10:30;;;;;;;14.93;4.32;;;;;;;2.96;81.44;100883.34;5022214;28;20022;-22
2022/01/20 01:13:05;;;;;;;13.70;3.90;;;;;;;2.96;81.51;100888.56;5025903;28;20027;-22
2022/01/20 01:15:39;;;;;;;12.85;3.83;;;;;;;2.94;80.77;100888.53;5024042;28;20025;-22
2022/01/20 01:23:34;;;;;;;15.43;3.88;;;;;;;2.93;80.71;100898.91;5023622;28;20052;-22
2022/01/20 01:26:01;;;;;;;9.15;3.15;;;;;;;2.91;79.32;100905.81;5024711;28;20582;-22
2022/01/20 01:28:29;;;;;;;11.95;3.45;;;;;;;2.90;79.49;100894.50;5021108;28;20037;-22
2022/01/20 01:33:25;;;;;;;16.10;3.53;;;;;;;2.89;79.30;100897.97;5025533;28;20109;-22
2022/01/20 01:35:56;;;;;;;4.35;2.40;;;;;;;2.85;79.03;100893.50;5022020;28;20033;-22
2022/01/20 01:38:35;;;;;;;8.40;3.03;;;;;;;2.84;78.30;100902.19;5019489;28;20486;-22
2022/01/20 01:41:12;;;;;;;9.75;2.75;;;;;;;2.82;78.64;100891.72;5022342;28;20049;-22
2022/01/20 01:43:41;;;;;;;11.60;2.65;;;;;;;2.82;78.36;100890.81;5025298;28;20049;-22
2022/01/20 01:46:07;;;;;;;11.95;3.67;;;;;;;2.84;78.50;100894.38;5024304;28;20036;-22
2022/01/20 01:48:33;;;;;;;12.23;3.67;;;;;;;2.80;78.20;100897.72;5026432;28;20036;-22
2022/01/20 01:51:01;;;;;;;10.00;2.80;;;;;;;2.82;78.66;100890.81;5025328;28;20445;-22
2022/01/20 01:53:27;;;;;;;5.57;2.03;;;;;;;2.79;78.79;100896.84;5025669;28;20445;-22
2022/01/20 01:55:53;;;;;;;9.95;2.80;;;;;;;2.76;77.90;100895.84;5025416;28;20110;-22
2022/01/20 01:58:19;;;;;;;11.35;2.83;;;;;;;2.78;78.32;100904.59;5022593;28;20112;-24
2022/01/20 02:00:45;;;;;;;10.98;3.30;;;;;;;2.79;79.06;100891.63;5019841;28;20032;-25
2022/01/20 02:03:14;;;;;;;9.68;2.47;;;;;;;2.77;79.18;100898.50;5023040;28;20155;-22
2022/01/20 02:05:56;;;;;;;16.52;4.00;;;;;;;2.76;78.10;100906.28;5024493;28;20041;-22
2022/01/20 02:19:10;;;;;;;8.35;2.45;;;;;;;2.66;78.78;100884.31;5028493;28;20035;-22
2022/01/20 02:22:05;;;;;;;7.63;2.58;;;;;;;2.63;77.97;100895.53;5029863;28;20142;-22
2022/01/20 02:24:31;;;;;;;9.02;2.63;;;;;;;2.61;78.42;100899.84;5015552;28;20034;-22
2022/01/20 02:26:57;;;;;;;13.52;2.85;;;;;;;2.60;77.87;100900.66;5030653;28;20032;-22
2022/01/20 02:29:23;;;;;;;12.50;3.38;;;;;;;2.58;77.79;100904.06;5024700;28;20446;-22
2022/01/20 02:31:57;;;;;;;5.75;3.03;;;;;;;2.56;78.10;100898.81;5028655;28;20148;-22
2022/01/20 02:34:24;;;;;;;6.18;2.28;;;;;;;2.54;77.52;100895.31;5028094;28;20049;-22
2022/01/20 02:36:50;;;;;;;12.20;2.92;;;;;;;2.51;76.93;100893.50;5029312;28;20104;-22
2022/01/20 02:39:41;;;;;;;10.10;2.85;;;;;;;2.51;77.71;100895.22;5026723;28;20112;-22
2022/01/20 02:45:02;;;;;;;9.00;2.45;;;;;;;2.47;77.86;100890.75;5027565;28;20072;-22
2022/01/20 02:47:31;;;;;;;8.40;2.58;;;;;;;2.43;77.82;100882.84;5029261;28;20075;-22
2022/01/20 02:49:57;;;;;;;8.98;2.78;;;;;;;2.41;78.09;100874.09;5027674;28;20022;-22
2022/01/20 02:52:24;;;;;;;9.52;2.83;;;;;;;2.38;78.27;100868.84;5028284;28;20021;-22
2022/01/20 02:54:50;;;;;;;11.15;2.75;;;;;;;2.38;78.52;100867.94;5028944;28;20067;-22
2022/01/20 02:57:17;;;;;;;8.45;2.60;;;;;;;2.35;78.73;100865.25;5027992;28;20032;-22
2022/01/20 02:59:43;;;;;;;6.40;2.40;;;;;;;2.32;78.91;100868.66;5026717;28;20034;-22
2022/01/20 03:02:09;;;;;;;7.35;2.80;;;;;;;2.32;79.04;100879.06;5025763;28;20430;-22
2022/01/20 03:04:36;;;;;;;5.38;2.55;;;;;;;2.29;78.91;100865.97;5029295;28;20068;-22
2022/01/20 03:07:03;;;;;;;15.70;3.67;;;;;;;2.26;79.47;100858.06;5025272;28;20385;-22
2022/01/20 03:09:29;;;;;;;8.13;2.60;;;;;;;2.24;79.41;100844.13;5028604;28;20025;-22
2022/01/20 03:11:55;;;;;;;8.23;3.13;;;;;;;2.22;79.38;100831.09;5028255;28;20037;-22
2022/01/20 03:14:21;;;;;;;7.25;2.40;;;;;;;2.20;79.60;100839.69;5024135;28;20404;-22
2022/01/20 03:16:48;;;;;;;8.50;2.72;;;;;;;2.17;79.40;100830.94;5027712;28;20060;-22
2022/01/20 03:19:14;;;;;;;12.48;3.00;;;;;;;2.16;79.55;100829.19;5026858;28;20036;-22
2022/01/20 03:21:40;;;;;;;7.40;2.88;;;;;;;2.13;79.49;100830.84;5028459;28;20029;-22
2022/01/20 03:24:08;;;;;;;9.27;2.60;;;;;;;2.13;79.88;100820.44;5026403;28;20079;-22
2022/01/20 03:26:34;;;;;;;7.97;2.40;;;;;;;2.10;79.58;100826.41;5027701;28;20022;-22
2022/01/20 03:29:01;;;;;;;9.52;3.13;;;;;;;2.09;79.37;100815.94;5025222;28;20029;-22
2022/01/20 03:31:27;;;;;;;11.25;2.85;;;;;;;2.07;79.69;100818.53;5022927;28;20064;-24
2022/01/20 03:33:53;;;;;;;10.60;2.55;;;;;;;2.05;79.76;100817.59;5022969;28;20036;-24
2022/01/20 03:36:19;;;;;;;15.00;2.63;;;;;;;2.04;80.01;100828.84;5027124;28;20033;-24
2022/01/20 03:38:45;;;;;;;8.68;3.47;;;;;;;2.01;79.90;100816.66;5024812;28;20056;-24
2022/01/20 03:41:11;;;;;;;8.95;3.13;;;;;;;1.99;79.73;100813.09;5024504;28;20035;-24
2022/01/20 03:43:37;;;;;;;9.85;3.50;;;;;;;1.98;80.03;100811.34;5026601;28;20021;-24
2022/01/20 03:46:06;;;;;;;4.82;2.00;;;;;;;1.97;80.29;100808.69;5023201;28;20060;-24
2022/01/20 03:48:38;;;;;;;15.50;3.33;;;;;;;1.94;80.02;100799.09;5025322;28;20388;-24
2022/01/20 03:51:04;;;;;;;11.60;4.03;;;;;;;1.94;80.55;100804.28;5026593;28;20452;-22
2022/01/20 03:53:33;;;;;;;18.30;3.13;;;;;;;1.91;80.64;100796.41;5026558;28;20029;-22
2022/01/20 03:55:59;;;;;;;14.07;3.53;;;;;;;1.91;80.56;100799.00;5023921;28;20116;-22
2022/01/20 03:58:26;;;;;;;11.98;3.55;;;;;;;1.89;80.88;100793.75;5021336;28;20045;-22
2022/01/20 04:00:52;;;;;;;9.63;3.17;;;;;;;1.89;80.81;100785.06;5025615;28;20029;-22
2022/01/20 04:03:18;;;;;;;13.10;3.80;;;;;;;1.88;81.14;100788.50;5026640;28;20032;-24
2022/01/20 04:06:02;;;;;;;10.27;4.07;;;;;;;1.89;81.44;100788.53;5027930;28;21373;-24
2022/01/20 04:08:32;;;;;;;18.92;3.85;;;;;;;1.90;81.21;100787.69;5022980;28;20103;-24
2022/01/20 04:11:03;;;;;;;10.18;3.10;;;;;;;1.90;81.20;100781.63;5025757;28;20469;-25
2022/01/20 04:13:31;;;;;;;9.27;3.42;;;;;;;1.90;81.52;100782.50;5024465;28;20544;-24
2022/01/20 04:16:11;;;;;;;15.85;3.78;;;;;;;1.91;81.57;100771.25;5024218;28;20029;-24
2022/01/20 04:18:37;;;;;;;11.80;3.53;;;;;;;1.91;81.64;100762.59;5022571;28;20385;-24
2022/01/20 04:21:02;;;;;;;10.32;3.22;;;;;;;1.91;81.56;100760.84;5024894;28;20079;-25
2022/01/20 04:23:30;;;;;;;12.63;3.10;;;;;;;1.91;81.71;100768.63;5023181;28;20017;-24
2022/01/20 04:25:56;;;;;;;10.68;2.88;;;;;;;1.93;81.71;100766.09;5024935;28;20485;-24
2022/01/20 04:28:22;;;;;;;16.13;3.53;;;;;;;1.93;81.71;100768.69;5026115;28;20179;-24
2022/01/20 04:30:48;;;;;;;19.88;4.57;;;;;;;1.94;81.95;100770.47;5026559;28;20104;-24
2022/01/20 04:33:14;;;;;;;11.40;3.75;;;;;;;1.96;81.93;100770.53;5027536;28;20079;-24
2022/01/20 04:35:40;;;;;;;13.07;4.78;;;;;;;1.99;81.98;100767.97;5027176;28;20014;-24
2022/01/20 04:38:07;;;;;;;18.90;5.22;;;;;;;1.97;82.02;100767.94;5025044;28;20116;-24
2022/01/20 04:40:39;;;;;;;9.80;3.92;;;;;;;2.01;82.14;100764.59;5022670;28;20052;-24
2022/01/20 04:43:05;;;;;;;13.52;4.00;;;;;;;2.02;82.17;100778.47;5024147;28;20063;-24
2022/01/20 04:45:36;;;;;;;14.23;4.88;;;;;;;2.03;82.55;100772.44;5027410;28;20072;-24
2022/01/20 04:59:00;;;;;;;11.65;3.08;;;;;;;2.13;82.83;100777.06;5027239;28;20098;-22
2022/01/20 05:01:26;;;;;;;17.42;5.50;;;;;;;2.13;83.50;100779.66;5022490;28;20477;-22
2022/01/20 05:03:53;;;;;;;11.35;4.50;;;;;;;2.14;83.08;100760.59;5023105;28;20044;-22
2022/01/20 05:06:20;;;;;;;13.73;4.22;;;;;;;2.16;83.76;100760.63;5024986;28;20024;-22
2022/01/20 05:08:46;;;;;;;15.55;5.18;;;;;;;2.16;83.65;100773.66;5023895;28;20064;-22
2022/01/20 05:11:14;;;;;;;18.65;4.28;;;;;;;2.18;83.88;100771.97;5025636;28;20057;-23
2022/01/20 05:13:40;;;;;;;12.70;3.58;;;;;;;2.18;84.11;100762.47;5023142;28;20412;-22
2022/01/20 05:16:06;;;;;;;10.75;4.30;;;;;;;2.21;83.69;100772.06;5025998;28;20021;-22
2022/01/20 05:18:32;;;;;;;15.50;4.00;;;;;;;2.21;83.92;100777.28;5022886;28;20035;-22
2022/01/20 05:20:58;;;;;;;16.73;3.95;;;;;;;2.22;84.23;100779.03;5024789;28;20082;-22
2022/01/20 05:23:24;;;;;;;19.95;4.07;;;;;;;2.24;84.23;100779.06;5022805;28;20017;-22
2022/01/20 05:25:50;;;;;;;13.90;4.47;;;;;;;2.25;84.37;100784.31;5018828;28;20452;-22
2022/01/20 05:28:16;;;;;;;11.45;3.35;;;;;;;2.25;84.07;100794.72;5025214;28;20021;-22
2022/01/20 05:30:42;;;;;;;11.57;4.07;;;;;;;2.25;84.10;100786.03;5020888;28;20040;-22
2022/01/20 05:33:08;;;;;;;14.27;3.70;;;;;;;2.29;84.34;100795.69;5023001;28;20072;-22
2022/01/20 05:35:34;;;;;;;16.55;4.45;;;;;;;2.29;84.42;100793.06;5024329;28;20090;-22
2022/01/20 05:38:00;;;;;;;13.98;4.07;;;;;;;2.30;84.39;100807.84;5023402;28;20665;-22
2022/01/20 05:40:26;;;;;;;9.43;2.97;;;;;;;2.29;84.62;100814.78;5022221;28;20080;-22
2022/01/20 05:42:52;;;;;;;19.23;5.07;;;;;;;2.30;84.48;100824.34;5020007;28;20026;-22
2022/01/20 05:45:18;;;;;;;10.23;3.38;;;;;;;2.30;84.96;100824.34;5020024;28;20369;-22
2022/01/20 05:47:46;;;;;;;11.18;3.33;;;;;;;2.26;84.68;100816.41;5018030;28;20029;-22
2022/01/20 05:50:17;;;;;;;14.55;3.55;;;;;;;2.27;84.72;100821.66;5021265;28;20029;-22
2022/01/20 05:52:44;;;;;;;9.25;2.70;;;;;;;2.29;84.61;100816.50;5026755;28;20024;-22
2022/01/20 05:55:16;;;;;;;12.70;3.53;;;;;;;2.29;84.25;100819.09;5024368;28;20034;-22
2022/01/20 05:57:42;;;;;;;9.55;2.38;;;;;;;2.29;84.49;100826.91;5026523;28;20540;-22
2022/01/20 06:00:11;;;;;;;6.50;1.83;;;;;;;2.28;84.57;100825.16;5024504;28;20037;-22
2022/01/20 06:03:36;;;;;;;8.98;2.33;;;;;;;2.26;84.56;100813.81;5023742;28;20068;-22
2022/01/20 06:05:24;;;;;;;4.28;1.52;;;;;;;2.28;84.35;100826.06;5027201;28;20521;-22
2022/01/20 06:07:50;;;;;;;3.38;1.40;;;;;;;2.28;84.35;100835.56;5025297;28;20026;-22
2022/01/20 06:10:16;;;;;;;8.40;1.85;;;;;;;2.27;84.20;100884.13;5027076;28;20033;-22
2022/01/20 06:12:42;;;;;;;4.18;1.85;;;;;;;2.21;83.79;100916.91;5028214;28;20042;-22
2022/01/20 06:15:10;;;;;;;3.92;1.30;;;;;;;2.21;83.63;100914.31;5028430;28;20648;-22
2022/01/20 06:17:37;;;;;;;4.65;1.63;;;;;;;2.22;83.38;100929.09;5021565;28;20567;-22
2022/01/20 06:20:06;;;;;;;6.13;1.48;;;;;;;2.22;83.52;100918.69;5025911;28;20026;-22
2022/01/20 06:22:32;;;;;;;3.88;1.58;;;;;;;2.23;83.13;100915.25;5023729;28;20029;-22
2022/01/20 06:24:58;;;;;;;4.72;2.17;;;;;;;2.23;83.16;100899.66;5025664;28;20485;-22
2022/01/20 06:27:24;;;;;;;8.23;2.05;;;;;;;2.22;82.96;100877.94;5027548;28;20067;-22
2022/01/20 06:29:50;;;;;;;4.88;1.48;;;;;;;2.21;82.81;100875.28;5024673;28;20042;-22
2022/01/20 06:32:15;;;;;;;9.32;2.35;;;;;;;2.17;82.39;100885.59;5025616;28;20022;-22
2022/01/20 06:34:41;;;;;;;5.50;2.10;;;;;;;2.17;82.19;100890.81;5026131;28;20025;-22
2022/01/20 06:37:07;;;;;;;8.38;2.47;;;;;;;2.14;81.97;100915.88;5024458;28;20036;-22
2022/01/20 06:39:33;;;;;;;12.18;2.50;;;;;;;2.09;81.57;100927.84;5026459;28;20108;-22
2022/01/20 06:41:58;;;;;;;8.05;2.53;;;;;;;2.08;81.76;100945.19;5024946;28;20401;-22
2022/01/20 06:44:25;;;;;;;4.70;1.90;;;;;;;2.04;81.92;100930.31;5026622;28;20078;-22
2022/01/20 06:46:51;;;;;;;6.50;2.05;;;;;;;2.01;82.07;100930.22;5022840;28;20461;-22
2022/01/20 06:49:18;;;;;;;6.20;3.13;;;;;;;2.02;82.02;100917.25;5025067;28;20021;-22
2022/01/20 06:51:45;;;;;;;2.00;1.50;;;;;;;2.03;82.14;100923.34;5024343;28;20056;-22
2022/01/20 06:54:11;;;;;;;4.88;1.55;;;;;;;1.98;81.52;100920.63;5025267;28;20091;-22
2022/01/20 06:56:37;;;;;;;4.13;1.63;;;;;;;1.99;81.65;100932.78;5022876;28;20040;-22
2022/01/20 06:59:04;;;;;;;4.97;2.17;;;;;;;1.97;81.75;100941.38;5024355;28;20513;-22
2022/01/20 07:01:30;;;;;;;8.90;2.03;;;;;;;1.95;81.66;100949.13;5026868;28;20052;-22
2022/01/20 07:03:55;;;;;;;9.05;2.72;;;;;;;1.93;81.54;100945.59;5026373;28;20452;-22
2022/01/20 07:06:21;;;;;;;9.27;2.47;;;;;;;1.92;81.42;100947.31;5024268;28;20516;-22
2022/01/20 07:08:47;;;;;;;4.47;1.50;;;;;;;1.91;81.45;100961.16;5026257;28;20017;-22
2022/01/20 07:11:12;;;;;;;7.32;2.08;;;;;;;1.88;81.73;100971.47;5010570;28;20041;-24
2022/01/20 07:13:38;;;;;;;9.93;3.58;;;;;;;1.86;80.70;100980.03;5028333;28;20078;-25
2022/01/20 07:16:04;;;;;;;9.52;2.60;;;;;;;1.84;80.93;100987.84;5025895;28;20103;-24
2022/01/20 07:18:31;;;;;;;6.45;2.28;;;;;;;1.82;81.28;100981.69;5023628;28;20043;-24
2022/01/20 07:20:56;;;;;;;8.13;2.85;;;;;;;1.77;80.71;100994.53;5023618;28;20032;-24
2022/01/20 07:23:22;;;;;;;5.25;2.63;;;;;;;1.79;80.96;100999.78;5026856;28;20025;-24
2022/01/20 07:25:48;;;;;;;7.57;2.60;;;;;;;1.76;81.06;101002.28;5024079;28;20050;-24
2022/01/20 07:28:14;;;;;;;3.90;2.10;;;;;;;1.76;80.49;101004.88;5020542;28;20063;-24
2022/01/20 07:30:40;;;;;;;4.47;2.55;;;;;;;1.74;80.71;101010.03;5027092;28;20044;-25
2022/01/20 07:33:05;;;;;;;6.75;3.25;;;;;;;1.72;80.59;101016.03;5024800;28;20030;-24
2022/01/20 07:35:32;;;;;;;9.88;2.72;;;;;;;1.69;80.19;101028.91;5025161;28;20105;-24
2022/01/20 07:37:58;;;;;;;10.60;3.22;;;;;;;1.69;80.77;101023.72;5023094;28;20948;-24
2022/01/20 07:40:24;;;;;;;8.57;2.90;;;;;;;1.67;80.02;101032.34;5023489;28;20099;-24
2022/01/20 07:42:50;;;;;;;7.65;3.20;;;;;;;1.67;80.60;101034.97;5023346;28;20056;-22
2022/01/20 07:45:17;;;;;;;4.70;2.30;;;;;;;1.65;80.11;101052.25;5023597;28;20084;-24
2022/01/20 07:47:43;;;;;;;7.45;2.30;;;;;;;1.64;80.68;101055.66;5019979;28;20033;-24
2022/01/20 07:50:10;;;;;;;9.35;2.60;;;;;;;1.63;80.34;101053.91;5020529;28;20025;-24
2022/01/20 07:52:36;;;;;;;8.02;2.40;;;;;;;1.63;80.36;101073.81;5019121;28;20485;-24
2022/01/20 07:55:02;;;;;;;4.18;2.00;;;;;;;1.59;79.82;101071.94;5021199;28;20029;-25
2022/01/20 07:57:28;;;;;;;5.75;1.98;;;;;;;1.57;79.47;101074.47;5021697;28;20517;-24
2022/01/20 07:59:54;;;;;;;6.88;2.45;;;;;;;1.54;79.30;101072.66;5024418;28;20064;-24
2022/01/20 08:02:19;;;;;;;6.90;2.58;;;;;;;1.56;80.38;101077.91;5023729;28;20072;-24
2022/01/20 08:04:45;;;;;;;5.00;1.73;;;;;;;1.55;80.75;101083.97;5024768;28;20393;-24
2022/01/20 08:07:11;;;;;;;4.28;1.85;;;;;;;1.54;80.71;101097.78;5027432;28;20336;-25
2022/01/20 08:09:38;;;;;;;8.52;1.98;;;;;;;1.54;81.12;101103.00;5021324;28;20036;-22
2022/01/20 08:12:06;;;;;;;10.00;1.98;;;;;;;1.54;80.99;101105.59;5020998;28;20033;-24
2022/01/20 08:14:32;;;;;;;8.88;2.35;;;;;;;1.50;80.22;101103.72;5025810;28;20057;-24
2022/01/20 08:16:58;;;;;;;3.80;2.15;;;;;;;1.52;81.12;101099.44;5025097;28;20075;-24
2022/01/20 08:19:24;;;;;;;4.40;1.95;;;;;;;1.50;79.91;101114.97;5025229;28;20040;-24
2022/01/20 08:21:50;;;;;;;4.90;2.10;;;;;;;1.53;80.81;101111.59;5023909;28;20029;-24
2022/01/20 08:24:15;;;;;;;5.95;2.08;;;;;;;1.53;80.92;101116.81;5021677;28;20061;-24
2022/01/20 08:26:41;;;;;;;9.68;1.60;;;;;;;1.52;81.03;101122.84;5020619;28;20493;-24
2022/01/20 08:29:07;;;;;;;6.40;2.53;;;;;;;1.52;80.66;101128.03;5022552;28;20033;-24
2022/01/20 08:31:33;;;;;;;8.98;1.92;;;;;;;1.52;80.89;101134.13;5022470;28;20025;-24
2022/01/20 08:33:59;;;;;;;4.13;2.03;;;;;;;1.54;80.61;101131.59;5019030;28;20109;-22
2022/01/20 08:36:25;;;;;;;7.38;2.55;;;;;;;1.52;80.61;101134.13;5021049;28;20033;-22
2022/01/20 08:38:51;;;;;;;5.10;1.80;;;;;;;1.54;80.56;101147.19;5024726;28;20041;-22
2022/01/20 08:41:17;;;;;;;8.27;2.08;;;;;;;1.54;80.02;101152.41;5021251;28;20029;-25
2022/01/20 08:43:42;;;;;;;6.60;2.13;;;;;;;1.52;79.58;101154.03;5026092;28;20052;-24
2022/01/20 08:46:10;;;;;;;5.38;2.20;;;;;;;1.53;79.39;101166.22;5020320;28;20503;-24
2022/01/20 08:48:37;;;;;;;6.88;2.10;;;;;;;1.54;79.48;101162.81;5025773;28;20036;-24
2022/01/20 08:51:04;;;;;;;6.95;2.15;;;;;;;1.56;79.65;101178.47;5022272;28;20400;-24
2022/01/20 08:53:31;;;;;;;12.23;2.70;;;;;;;1.54;79.51;101171.47;5024941;28;20032;-25
2022/01/20 08:56:00;;;;;;;10.90;2.67;;;;;;;1.57;79.47;101191.47;5023499;28;20040;-24
2022/01/20 08:58:26;;;;;;;7.28;2.25;;;;;;;1.56;78.85;101194.91;5022464;28;20444;-24
2022/01/20 09:00:52;;;;;;;7.93;2.45;;;;;;;1.57;79.23;101194.09;5022306;28;20033;-25
2022/01/20 09:03:22;;;;;;;9.63;2.85;;;;;;;1.56;78.84;101194.91;5021351;28;20519;-24
2022/01/20 09:05:48;;;;;;;4.57;2.10;;;;;;;1.58;79.08;101193.28;5024744;28;20044;-24
2022/01/20 09:08:14;;;;;;;8.57;2.35;;;;;;;1.60;78.91;101189.00;5023509;28;20495;-24
2022/01/20 09:10:43;;;;;;;10.85;2.63;;;;;;;1.61;79.19;101189.91;5020341;28;20021;-24
2022/01/20 09:15:57;;;;;;;15.50;2.85;;;;;;;1.64;78.79;101180.47;5026157;28;20519;-24
2022/01/20 09:18:24;;;;;;;7.78;2.95;;;;;;;1.66;78.93;101189.22;5021539;28;20033;-24
2022/01/20 09:20:49;;;;;;;7.28;2.47;;;;;;;1.69;79.08;101192.75;5019012;28;20065;-25
2022/01/20 09:23:15;;;;;;;12.43;2.58;;;;;;;1.68;78.57;101178.88;5018111;28;20049;-24
2022/01/20 09:25:42;;;;;;;5.38;1.90;;;;;;;1.70;78.83;101185.00;5021086;28;20044;-24
2022/01/20 09:28:08;;;;;;;9.43;2.53;;;;;;;1.72;78.37;101183.38;5019102;28;20502;-25
2022/01/20 09:30:36;;;;;;;9.02;2.20;;;;;;;1.76;78.46;101179.16;5020296;28;20029;-24
2022/01/20 09:33:14;;;;;;;7.22;2.15;;;;;;;1.78;78.91;101187.91;5018721;28;20030;-24
2022/01/20 09:35:42;;;;;;;11.68;3.22;;;;;;;1.81;78.51;101182.81;5015860;28;20083;-25
2022/01/20 09:38:08;;;;;;;13.07;3.78;;;;;;;1.83;78.83;101198.47;5020631;28;20029;-24
2022/01/20 09:40:36;;;;;;;13.55;3.33;;;;;;;1.87;78.71;101203.81;5023811;28;20034;-22
2022/01/20 09:43:03;;;;;;;8.20;4.50;;;;;;;1.88;77.74;101204.72;5025799;28;20033;-22
2022/01/20 09:45:30;;;;;;;10.93;4.82;;;;;;;1.91;78.07;101213.50;5022974;28;20028;-24
2022/01/20 09:47:56;;;;;;;10.73;3.88;;;;;;;1.96;77.77;101207.59;5021952;28;20084;-24
2022/01/20 09:50:23;;;;;;;8.27;3.25;;;;;;;1.98;77.73;101211.13;5019220;28;20034;-24
2022/01/20 09:52:50;;;;;;;9.70;3.95;;;;;;;2.01;77.98;101211.25;5022337;28;20037;-24
2022/01/20 09:55:18;;;;;;;9.68;3.08;;;;;;;2.01;78.24;101200.81;5021788;28;20057;-24
2022/01/20 09:57:44;;;;;;;11.27;3.78;;;;;;;2.04;78.15;101207.00;5019302;28;20025;-24
2022/01/20 10:00:12;;;;;;;10.00;3.88;;;;;;;2.06;77.70;101196.66;5019417;28;20029;-24
2022/01/20 10:02:50;;;;;;;9.25;3.60;;;;;;;2.10;78.28;101198.53;5020316;28;20040;-24
2022/01/20 10:05:34;;;;;;;8.10;3.60;;;;;;;2.10;77.99;101205.47;5017209;28;20022;-24
2022/01/20 10:08:02;;;;;;;6.38;2.83;;;;;;;2.12;77.58;101211.59;5022642;28;20104;-22
2022/01/20 10:10:49;;;;;;;12.13;3.40;;;;;;;2.16;77.58;101200.47;5021855;28;20076;-22
2022/01/20 10:13:20;;;;;;;13.90;3.28;;;;;;;2.17;77.75;101203.13;5018537;28;20026;-22
2022/01/20 10:16:04;;;;;;;15.05;4.03;;;;;;;2.21;77.24;101226.66;5021517;28;20026;-24
2022/01/20 10:18:31;;;;;;;15.70;3.95;;;;;;;2.20;76.84;101212.75;5022340;28;20173;-24
2022/01/20 10:21:04;;;;;;;6.97;3.33;;;;;;;2.23;77.37;101217.19;5021975;28;20531;-22
2022/01/20 10:23:38;;;;;;;8.98;3.17;;;;;;;2.27;77.36;101209.50;5019357;28;20429;-24
2022/01/20 10:26:10;;;;;;;8.75;3.10;;;;;;;2.30;76.95;101204.41;5021150;28;20021;-24
2022/01/20 10:28:58;;;;;;;10.77;2.78;;;;;;;2.33;77.12;101197.56;5021181;28;20075;-24
2022/01/20 10:31:51;;;;;;;11.45;3.33;;;;;;;2.35;76.98;101204.59;5021950;28;20029;-24
2022/01/20 10:34:20;;;;;;;13.55;3.28;;;;;;;2.38;76.41;101195.97;5015043;28;20095;-22
2022/01/20 10:36:53;;;;;;;8.80;2.55;;;;;;;2.41;76.56;101191.75;5022996;28;20033;-22
2022/01/20 10:39:44;;;;;;;10.77;2.80;;;;;;;2.43;75.97;101200.50;5024449;28;20563;-22
2022/01/20 10:42:12;;;;;;;10.15;3.33;;;;;;;2.47;76.57;101193.66;5023268;28;20037;-22
2022/01/20 10:44:48;;;;;;;7.85;2.70;;;;;;;2.51;76.36;101202.47;5023758;28;20477;-22
2022/01/20 10:47:18;;;;;;;8.75;2.63;;;;;;;2.53;75.53;101190.38;5026668;28;20033;-22
2022/01/20 10:49:45;;;;;;;14.60;4.90;;;;;;;2.53;74.97;101198.19;5028964;28;20025;-22
2022/01/20 10:52:14;;;;;;;29.23;13.75;;;;;;;2.56;74.43;101193.97;5027464;28;20025;-22
2022/01/20 10:54:42;;;;;;;33.33;19.05;;;;;;;2.60;74.60;101187.13;5029981;28;20477;-22
2022/01/20 10:57:10;;;;;;;79.05;41.78;;;;;;;2.61;74.44;101191.53;5026689;28;20092;-22
2022/01/20 10:59:57;;;;;;;81.55;43.78;;;;;;;2.65;74.29;101180.38;5026971;28;20026;-22
2022/01/20 11:02:27;;;;;;;99.60;47.88;;;;;;;2.67;73.92;101191.72;5026367;28;20413;-22
2022/01/20 11:04:53;;;;;;;51.63;33.42;;;;;;;2.71;74.33;101179.69;5022555;28;20032;-22
2022/01/20 11:07:20;;;;;;;35.88;21.23;;;;;;;2.72;73.71;101194.47;5027498;28;20374;-22
2022/01/20 11:09:50;;;;;;;23.85;14.77;;;;;;;2.75;73.90;101198.88;5028115;28;20064;-22
2022/01/20 11:12:17;;;;;;;21.58;8.57;;;;;;;2.73;73.15;101184.94;5023958;28;20586;-22
2022/01/20 11:14:45;;;;;;;19.38;7.88;;;;;;;2.74;72.72;101187.59;5026824;28;20053;-22
2022/01/20 11:17:19;;;;;;;13.98;5.47;;;;;;;2.74;73.42;101190.22;5022789;28;20025;-22
2022/01/20 11:19:46;;;;;;;16.75;5.35;;;;;;;2.78;73.72;101194.69;5023243;28;20029;-22
2022/01/20 11:22:13;;;;;;;13.95;5.35;;;;;;;2.78;73.50;101192.06;5021840;28;20033;-22
2022/01/20 11:24:42;;;;;;;9.85;3.97;;;;;;;2.82;74.10;101182.63;5025599;28;20025;-22
2022/01/20 11:27:10;;;;;;;15.18;3.50;;;;;;;2.84;74.61;101180.06;5025536;28;20445;-22
2022/01/20 11:29:42;;;;;;;7.25;3.70;;;;;;;2.86;74.08;101184.47;5024652;28;20036;-22
2022/01/20 11:32:42;;;;;;;10.13;3.05;;;;;;;2.88;73.36;101159.38;5023161;28;20033;-22
2022/01/20 11:35:09;;;;;;;10.90;2.60;;;;;;;2.92;73.23;101155.13;5003192;28;20425;-22
2022/01/20 11:37:39;;;;;;;9.27;2.88;;;;;;;2.93;72.93;101156.88;5022060;28;20033;-22
2022/01/20 11:40:12;;;;;;;8.82;2.60;;;;;;;2.96;73.79;101154.38;5023993;28;20053;-22
2022/01/20 11:42:38;;;;;;;11.10;3.15;;;;;;;3.03;73.43;101163.28;5024324;28;20033;-22
2022/01/20 11:45:24;;;;;;;11.35;2.72;;;;;;;3.05;75.16;101156.38;5018193;28;20045;-22
2022/01/20 11:47:50;;;;;;;10.20;2.65;;;;;;;3.08;74.64;101159.94;5025558;28;20448;-22
2022/01/20 11:50:16;;;;;;;6.47;2.88;;;;;;;3.10;73.45;101157.38;5019228;28;20026;-22
2022/01/20 11:52:42;;;;;;;13.68;2.80;;;;;;;3.12;73.42;101163.53;5018225;28;20034;-22
2022/01/20 11:55:14;;;;;;;14.77;6.35;;;;;;;3.12;73.11;101160.03;5022280;28;20029;-22
2022/01/20 11:57:39;;;;;;;;;;;;;;;3.10;71.99;101144.34;5022971;28;20033;-22
2022/01/20 12:00:23;;;;;;;35.00;17.55;;;;;;;3.15;71.98;101171.44;5022791;28;19963;-22
2022/01/20 12:02:50;;;;;;;65.05;32.40;;;;;;;3.12;71.98;101154.81;5018589;28;20068;-22
2022/01/20 12:05:20;;;;;;;64.28;38.38;;;;;;;3.14;71.44;101159.22;5022296;28;20095;-22
2022/01/20 12:07:46;;;;;;;29.60;18.90;;;;;;;3.12;70.72;101160.94;5020797;28;20038;-22
2022/01/20 12:10:24;;;;;;;23.85;13.60;;;;;;;3.13;71.02;101164.44;5021266;28;20045;-22
2022/01/20 12:12:50;;;;;;;22.88;11.88;;;;;;;3.11;71.94;101159.16;5020938;28;20490;-22
2022/01/20 12:15:18;;;;;;;12.55;6.85;;;;;;;3.07;71.27;101163.38;5024026;28;20021;-22
2022/01/20 12:17:55;;;;;;;12.35;5.18;;;;;;;3.06;70.74;101151.22;5017675;28;20061;-22
2022/01/20 12:20:22;;;;;;;10.70;4.00;;;;;;;3.04;71.17;101167.66;5021047;28;20041;-22
2022/01/20 12:22:49;;;;;;;12.25;4.20;;;;;;;3.03;70.55;101168.50;5019020;28;20610;-22
2022/01/20 12:25:20;;;;;;;38.95;23.05;;;;;;;3.03;70.90;101150.25;5017711;28;20022;-22
2022/01/20 12:27:47;;;;;;;34.63;21.08;;;;;;;3.02;71.56;101158.88;4997293;28;20052;-22
2022/01/20 12:30:23;;;;;;;25.85;12.23;;;;;;;2.99;71.72;101174.41;5025924;28;20037;-22
2022/01/20 12:33:03;;;;;;;12.48;8.43;;;;;;;3.01;72.16;101167.53;5019468;28;20042;-22